createdAt,value
2023-04-20T00:00:11.810Z,6.65
2023-04-20T00:03:01.258Z,6.66
2023-04-20T00:05:34.513Z,6.68
2023-04-20T00:08:03.260Z,6.70
2023-04-20T00:10:31.661Z,6.72
2023-04-20T00:13:00.027Z,6.74
2023-04-20T00:15:28.457Z,6.77
2023-04-20T00:17:57.209Z,6.80
2023-04-20T00:20:25.741Z,6.82
2023-04-20T00:22:54.336Z,6.85
2023-04-20T00:25:22.738Z,6.89
2023-04-20T00:27:53.541Z,6.92
2023-04-20T00:30:22.152Z,6.95
2023-04-20T00:32:52.134Z,6.96
2023-04-20T00:35:20.750Z,6.97
2023-04-20T00:37:49.118Z,6.99
2023-04-20T00:40:17.637Z,7.02
2023-04-20T00:42:46.017Z,7.04
2023-04-20T00:45:14.344Z,7.04
2023-04-20T00:47:42.781Z,7.05
2023-04-20T00:50:11.860Z,7.05
2023-04-20T00:52:41.789Z,7.05
2023-04-20T00:55:11.247Z,7.04
2023-04-20T00:57:41.665Z,7.04
2023-04-20T01:00:11.057Z,7.04
2023-04-20T01:02:39.543Z,7.04
2023-04-20T01:05:09.326Z,7.05
2023-04-20T01:07:37.732Z,7.04
2023-04-20T01:10:10.432Z,7.05
2023-04-20T01:12:39.046Z,7.06
2023-04-20T01:15:08.510Z,7.06
2023-04-20T01:17:40.557Z,7.06
2023-04-20T01:20:14.930Z,7.08
2023-04-20T01:22:56.325Z,7.10
2023-04-20T01:25:25.579Z,7.09
2023-04-20T01:27:53.994Z,7.08
2023-04-20T01:30:22.791Z,7.07
2023-04-20T01:32:51.439Z,7.07
2023-04-20T01:35:19.840Z,7.07
2023-04-20T01:37:48.238Z,7.07
2023-04-20T01:40:16.703Z,7.07
2023-04-20T01:42:45.194Z,7.08
2023-04-20T01:45:13.524Z,7.08
2023-04-20T01:47:41.985Z,7.07
2023-04-20T01:50:10.813Z,7.05
2023-04-20T01:52:39.215Z,7.03
2023-04-20T01:55:08.889Z,7.02
2023-04-20T01:57:37.310Z,7.02
2023-04-20T02:00:07.108Z,7.02
2023-04-20T02:02:35.950Z,7.02
2023-04-20T02:05:06.970Z,7.01
2023-04-20T02:07:35.430Z,6.98
2023-04-20T02:10:04.789Z,6.95
2023-04-20T02:12:33.197Z,6.94
2023-04-20T02:15:01.615Z,6.94
2023-04-20T02:17:30.009Z,6.95
2023-04-20T02:19:58.644Z,6.95
2023-04-20T02:22:26.977Z,6.96
2023-04-20T02:24:55.404Z,6.96
2023-04-20T02:27:23.749Z,6.97
2023-04-20T02:29:52.089Z,6.98
2023-04-20T02:32:20.494Z,7.00
2023-04-20T02:34:48.891Z,7.01
2023-04-20T02:37:17.381Z,7.00
2023-04-20T02:39:46.128Z,6.99
2023-04-20T02:42:14.557Z,6.95
2023-04-20T02:44:42.874Z,6.94
2023-04-20T02:47:11.276Z,6.94
2023-04-20T02:49:39.659Z,6.92
2023-04-20T02:52:08.021Z,6.93
2023-04-20T02:54:36.605Z,6.91
2023-04-20T02:57:05.329Z,6.90
2023-04-20T02:59:33.781Z,6.89
2023-04-20T03:02:02.273Z,6.88
2023-04-20T03:04:32.142Z,6.86
2023-04-20T03:07:01.440Z,6.85
2023-04-20T03:09:29.808Z,6.83
2023-04-20T03:11:58.197Z,6.83
2023-04-20T03:14:26.970Z,6.84
2023-04-20T03:16:55.609Z,6.83
2023-04-20T03:19:24.511Z,6.84
2023-04-20T03:21:52.824Z,6.84
2023-04-20T03:24:22.317Z,6.85
2023-04-20T03:26:50.868Z,6.84
2023-04-20T03:29:19.521Z,6.83
2023-04-20T03:31:48.215Z,6.82
2023-04-20T03:34:18.941Z,6.82
2023-04-20T03:36:47.268Z,6.82
2023-04-20T03:39:15.866Z,6.84
2023-04-20T03:41:44.572Z,6.86
2023-04-20T03:44:14.136Z,6.88
2023-04-20T03:46:45.236Z,6.89
2023-04-20T03:49:13.574Z,6.90
2023-04-20T03:51:41.919Z,6.91
2023-04-20T03:54:11.114Z,6.92
2023-04-20T03:56:39.451Z,6.92
2023-04-20T03:59:08.375Z,6.90
2023-04-20T04:01:40.739Z,6.91
2023-04-20T04:04:09.890Z,6.92
2023-04-20T04:06:38.513Z,6.94
2023-04-20T04:09:07.666Z,6.96
2023-04-20T04:11:37.185Z,7.00
2023-04-20T04:14:05.565Z,7.03
2023-04-20T04:16:34.037Z,7.05
2023-04-20T04:19:02.416Z,7.08
2023-04-20T04:21:30.854Z,7.11
2023-04-20T04:23:59.483Z,7.15
2023-04-20T04:26:27.843Z,7.17
2023-04-20T04:28:56.228Z,7.20
2023-04-20T04:31:25.205Z,7.24
2023-04-20T04:33:53.816Z,7.28
2023-04-20T04:36:22.129Z,7.31
2023-04-20T04:38:50.796Z,7.34
2023-04-20T04:41:19.375Z,7.35
2023-04-20T04:43:48.066Z,7.37
2023-04-20T04:46:16.412Z,7.38
2023-04-20T04:48:46.633Z,7.37
2023-04-20T04:51:15.020Z,7.37
2023-04-20T04:53:45.221Z,7.36
2023-04-20T04:56:13.832Z,7.36
2023-04-20T04:58:42.240Z,7.36
2023-04-20T05:01:11.516Z,7.39
2023-04-20T05:03:39.989Z,7.40
2023-04-20T05:06:08.509Z,7.42
2023-04-20T05:08:38.656Z,7.45
2023-04-20T05:11:07.092Z,7.50
2023-04-20T05:13:35.559Z,7.54
2023-04-20T05:16:05.173Z,7.57
2023-04-20T05:18:33.677Z,7.60
2023-04-20T05:21:02.124Z,7.64
2023-04-20T05:23:30.508Z,7.67
2023-04-20T05:25:58.925Z,7.71
2023-04-20T05:28:27.670Z,7.73
2023-04-20T05:30:55.986Z,7.75
2023-04-20T05:33:25.054Z,7.76
2023-04-20T05:36:03.405Z,7.80
2023-04-20T05:38:31.725Z,7.83
2023-04-20T05:41:00.618Z,7.86
2023-04-20T05:43:29.019Z,7.89
2023-04-20T05:45:57.348Z,7.91
2023-04-20T05:48:29.801Z,7.95
2023-04-20T05:50:58.559Z,8.01
2023-04-20T05:53:26.941Z,8.05
2023-04-20T05:55:55.278Z,8.09
2023-04-20T05:58:23.837Z,8.12
2023-04-20T06:00:53.439Z,8.17
2023-04-20T06:03:22.950Z,8.23
2023-04-20T06:08:20.188Z,8.36
2023-04-20T06:10:48.540Z,8.38
2023-04-20T06:13:16.964Z,8.43
2023-04-20T06:15:45.766Z,8.47
2023-04-20T06:18:14.725Z,8.52
2023-04-20T06:20:44.237Z,8.57
2023-04-20T06:23:12.831Z,8.62
2023-04-20T06:25:41.582Z,8.68
2023-04-20T06:28:10.733Z,8.74
2023-04-20T06:31:01.945Z,8.81
2023-04-20T06:33:31.196Z,8.90
2023-04-20T06:35:59.593Z,8.99
2023-04-20T06:38:28.004Z,9.06
2023-04-20T06:40:58.844Z,9.15
2023-04-20T06:43:27.311Z,9.22
2023-04-20T06:46:10.607Z,9.28
2023-04-20T06:48:39.025Z,9.34
2023-04-20T06:51:07.428Z,9.41
2023-04-20T06:53:35.803Z,9.46
2023-04-20T06:56:04.456Z,9.51
2023-04-20T06:58:34.230Z,9.56
2023-04-20T07:01:06.870Z,9.63
2023-04-20T07:03:35.652Z,9.70
2023-04-20T07:06:05.665Z,9.80
2023-04-20T07:08:34.164Z,9.90
2023-04-20T07:11:02.585Z,10.01
2023-04-20T07:13:33.946Z,10.12
2023-04-20T07:16:02.867Z,10.23
2023-04-20T07:18:33.915Z,10.33
2023-04-20T07:21:03.907Z,10.40
2023-04-20T07:23:32.933Z,10.42
2023-04-20T07:26:07.622Z,10.45
2023-04-20T07:28:37.545Z,10.49
2023-04-20T07:31:06.174Z,10.54
2023-04-20T07:33:35.988Z,10.59
2023-04-20T07:36:06.456Z,10.61
2023-04-20T07:38:40.165Z,10.65
2023-04-20T07:41:11.078Z,10.68
2023-04-20T07:43:41.543Z,10.76
2023-04-20T07:46:13.757Z,10.85
2023-04-20T07:48:42.690Z,10.99
2023-04-20T07:51:11.033Z,11.15
2023-04-20T07:53:39.444Z,11.32
2023-04-20T07:56:08.298Z,11.50
2023-04-20T07:58:41.937Z,11.67
2023-04-20T08:01:11.716Z,11.86
2023-04-20T08:03:41.791Z,12.03
2023-04-20T08:06:10.465Z,12.16
2023-04-20T08:08:38.868Z,12.27
2023-04-20T08:11:08.296Z,12.35
2023-04-20T08:13:37.473Z,12.44
2023-04-20T08:16:06.336Z,12.51
2023-04-20T08:18:34.906Z,12.56
2023-04-20T08:21:03.627Z,12.61
2023-04-20T08:23:32.046Z,12.72
2023-04-20T08:26:01.346Z,12.81
2023-04-20T08:28:33.792Z,12.86
2023-04-20T08:31:03.196Z,12.88
2023-04-20T08:33:33.723Z,12.91
2023-04-20T08:36:02.142Z,12.91
2023-04-20T08:38:34.245Z,12.92
2023-04-20T08:41:03.379Z,12.94
2023-04-20T08:43:32.561Z,12.99
2023-04-20T08:46:04.316Z,13.04
2023-04-20T08:48:36.561Z,13.05
2023-04-20T08:51:06.215Z,13.10
2023-04-20T08:53:35.291Z,13.17
2023-04-20T08:56:04.322Z,13.30
2023-04-20T08:58:32.976Z,13.40
2023-04-20T09:01:01.721Z,13.52
2023-04-20T09:03:58.936Z,13.64
2023-04-20T09:06:28.216Z,13.77
2023-04-20T09:08:56.762Z,13.86
2023-04-20T09:11:34.276Z,13.98
2023-04-20T09:14:07.214Z,14.16
2023-04-20T09:16:40.232Z,14.36
2023-04-20T09:19:09.304Z,14.58
2023-04-20T09:21:49.083Z,14.78
2023-04-20T09:24:21.576Z,14.97
2023-04-20T09:26:51.132Z,15.16
2023-04-20T09:29:22.317Z,15.33
2023-04-20T09:31:52.965Z,15.45
2023-04-20T09:34:23.554Z,15.53
2023-04-20T09:36:56.079Z,15.61
2023-04-20T09:39:25.010Z,15.70
2023-04-20T09:41:53.453Z,15.82
2023-04-20T09:44:22.366Z,15.97
2023-04-20T09:46:51.315Z,16.14
2023-04-20T09:49:21.408Z,16.28
2023-04-20T09:51:51.156Z,16.47
2023-04-20T09:54:20.327Z,16.72
2023-04-20T09:56:49.629Z,17.01
2023-04-20T09:59:19.713Z,17.40
2023-04-20T10:01:49.311Z,17.79
2023-04-20T10:04:18.371Z,18.23
2023-04-20T10:06:55.540Z,18.66
2023-04-20T10:09:26.446Z,19.10
2023-04-20T10:12:07.316Z,19.42
2023-04-20T10:14:35.846Z,19.67
2023-04-20T10:17:09.771Z,19.86
2023-04-20T10:19:44.642Z,20.12
2023-04-20T10:22:29.151Z,20.38
2023-04-20T10:24:57.530Z,20.68
2023-04-20T10:27:26.153Z,20.98
2023-04-20T10:29:54.588Z,21.18
2023-04-20T10:32:28.772Z,21.38
2023-04-20T10:35:06.785Z,21.51
2023-04-20T10:37:36.021Z,21.55
2023-04-20T10:40:07.438Z,21.61
2023-04-20T10:42:45.890Z,21.59
2023-04-20T10:45:14.376Z,21.49
2023-04-20T10:47:44.327Z,21.48
2023-04-20T10:50:15.980Z,21.53
2023-04-20T10:52:44.768Z,21.59
2023-04-20T10:55:24.512Z,21.62
2023-04-20T10:57:53.498Z,21.81
2023-04-20T11:00:25.103Z,22.14
2023-04-20T11:02:59.152Z,22.46
2023-04-20T11:05:27.980Z,22.64
2023-04-20T11:08:04.051Z,22.54
2023-04-20T11:10:42.652Z,22.43
2023-04-20T11:13:22.570Z,22.35
2023-04-20T11:15:51.628Z,22.29
2023-04-20T11:18:20.259Z,22.46
2023-04-20T11:20:52.937Z,22.64
2023-04-20T11:23:23.834Z,22.69
2023-04-20T11:25:55.015Z,22.76
2023-04-20T11:28:24.183Z,22.99
2023-04-20T11:30:52.851Z,23.03
2023-04-20T11:33:33.172Z,22.97
2023-04-20T11:36:02.297Z,22.80
2023-04-20T11:38:35.105Z,22.76
2023-04-20T11:41:07.933Z,22.96
2023-04-20T11:43:36.349Z,23.17
2023-04-20T11:46:15.074Z,23.48
2023-04-20T11:48:44.160Z,23.73
2023-04-20T11:51:13.785Z,23.93
2023-04-20T11:53:42.657Z,23.98
2023-04-20T11:56:13.824Z,23.96
2023-04-20T11:58:42.292Z,24.07
2023-04-20T12:01:10.796Z,24.11
2023-04-20T12:03:39.601Z,24.21
2023-04-20T12:06:08.471Z,24.37
2023-04-20T12:08:37.279Z,24.38
2023-04-20T12:11:05.645Z,24.26
2023-04-20T12:13:34.077Z,24.27
2023-04-20T12:16:02.538Z,24.52
2023-04-20T12:18:30.968Z,24.67
2023-04-20T12:21:00.669Z,24.86
2023-04-20T12:23:29.083Z,25.07
2023-04-20T12:25:58.078Z,25.21
2023-04-20T12:28:26.413Z,25.52
2023-04-20T12:30:54.869Z,25.87
2023-04-20T12:33:23.309Z,26.04
2023-04-20T12:35:51.816Z,26.23
2023-04-20T12:38:20.246Z,26.62
2023-04-20T12:40:48.738Z,26.99
2023-04-20T12:43:17.100Z,27.23
2023-04-20T12:45:45.861Z,27.41
2023-04-20T12:48:14.409Z,27.36
2023-04-20T12:50:43.010Z,27.35
2023-04-20T12:53:13.346Z,27.64
2023-04-20T12:55:42.665Z,27.92
2023-04-20T12:58:11.328Z,28.01
2023-04-20T13:00:42.082Z,27.82
2023-04-20T13:03:10.676Z,27.48
2023-04-20T13:05:39.138Z,27.12
2023-04-20T13:08:07.467Z,26.73
2023-04-20T13:10:37.132Z,26.27
2023-04-20T13:13:05.893Z,25.91
2023-04-20T13:15:39.018Z,25.56
2023-04-20T13:18:09.923Z,25.16
2023-04-20T13:20:38.512Z,24.85
2023-04-20T13:23:07.432Z,24.55
2023-04-20T13:25:38.299Z,24.24
2023-04-20T13:28:07.064Z,23.92
2023-04-20T13:30:36.449Z,23.82
2023-04-20T13:33:04.948Z,24.19
2023-04-20T13:35:34.547Z,24.62
2023-04-20T13:38:06.359Z,24.88
2023-04-20T13:40:35.900Z,24.88
2023-04-20T13:43:04.526Z,24.72
2023-04-20T13:45:33.051Z,24.49
2023-04-20T13:48:01.627Z,24.28
2023-04-20T13:50:31.017Z,24.07
2023-04-20T13:53:03.212Z,23.75
2023-04-20T13:55:32.146Z,23.46
2023-04-20T13:58:02.135Z,23.28
2023-04-20T14:00:31.693Z,23.30
2023-04-20T14:03:04.709Z,23.46
2023-04-20T14:05:34.976Z,23.60
2023-04-20T14:08:04.656Z,23.72
2023-04-20T14:10:34.259Z,23.72
2023-04-20T14:13:04.597Z,23.68
2023-04-20T14:15:35.178Z,23.54
2023-04-20T14:18:08.043Z,23.44
2023-04-20T14:20:38.622Z,23.27
2023-04-20T14:23:09.607Z,23.04
2023-04-20T14:25:40.404Z,22.88
2023-04-20T14:28:09.614Z,22.78
2023-04-20T14:30:38.380Z,22.79
2023-04-20T14:33:08.135Z,23.06
2023-04-20T14:35:37.173Z,23.86
2023-04-20T14:38:05.612Z,24.88
2023-04-20T14:40:34.232Z,25.90
2023-04-20T14:43:02.916Z,26.36
2023-04-20T14:45:31.481Z,26.53
2023-04-20T14:47:59.933Z,26.44
2023-04-20T14:50:28.488Z,26.87
2023-04-20T14:52:57.003Z,27.66
2023-04-20T14:55:26.079Z,28.62
2023-04-20T14:57:57.102Z,29.68
2023-04-20T15:00:28.347Z,30.73
2023-04-20T15:02:57.451Z,31.71
2023-04-20T15:05:28.072Z,32.63
2023-04-20T15:07:57.711Z,33.47
2023-04-20T15:10:31.028Z,34.05
2023-04-20T15:12:59.375Z,34.12
2023-04-20T15:15:37.623Z,34.49
2023-04-20T15:18:17.449Z,35.14
2023-04-20T15:20:46.085Z,35.67
2023-04-20T15:23:15.010Z,35.89
2023-04-20T15:25:43.751Z,35.46
2023-04-20T15:28:12.342Z,35.30
2023-04-20T15:30:41.757Z,35.31
2023-04-20T15:33:10.923Z,34.95
2023-04-20T15:35:39.697Z,34.51
2023-04-20T15:38:08.232Z,34.76
2023-04-20T15:40:36.737Z,35.15
2023-04-20T15:43:05.186Z,35.64
2023-04-20T15:45:33.630Z,36.15
2023-04-20T15:48:02.064Z,36.63
2023-04-20T15:50:30.884Z,37.04
2023-04-20T15:52:59.298Z,37.42
2023-04-20T15:55:27.867Z,37.85
2023-04-20T15:57:58.282Z,37.87
2023-04-20T16:00:26.990Z,36.98
2023-04-20T16:02:55.864Z,36.18
2023-04-20T16:05:24.339Z,36.26
2023-04-20T16:07:54.609Z,35.75
2023-04-20T16:10:23.705Z,35.66
2023-04-20T16:12:52.295Z,35.86
2023-04-20T16:15:21.136Z,36.13
2023-04-20T16:17:49.572Z,36.31
2023-04-20T16:20:18.128Z,36.43
2023-04-20T16:22:46.469Z,36.64
2023-04-20T16:25:22.635Z,36.85
2023-04-20T16:27:51.798Z,37.05
2023-04-20T16:30:20.576Z,37.16
2023-04-20T16:32:49.743Z,37.22
2023-04-20T16:35:18.507Z,37.29
2023-04-20T16:37:47.062Z,37.21
2023-04-20T16:40:15.740Z,37.15
2023-04-20T16:42:44.041Z,37.09
2023-04-20T16:45:13.537Z,36.95
2023-04-20T16:47:41.995Z,36.73
2023-04-20T16:50:14.337Z,36.43
2023-04-20T16:52:42.936Z,36.07
2023-04-20T16:55:11.454Z,35.67
2023-04-20T16:57:41.300Z,35.17
2023-04-20T17:00:10.835Z,34.53
2023-04-20T17:02:39.393Z,33.86
2023-04-20T17:05:08.374Z,33.24
2023-04-20T17:07:37.024Z,32.51
2023-04-20T17:10:06.186Z,31.67
2023-04-20T17:12:34.617Z,31.00
2023-04-20T17:15:03.788Z,30.31
2023-04-20T17:17:33.000Z,29.43
2023-04-20T17:20:02.178Z,28.54
2023-04-20T17:22:30.566Z,27.77
2023-04-20T17:25:01.428Z,27.01
2023-04-20T17:27:29.944Z,26.34
2023-04-20T17:29:58.705Z,25.69
2023-04-20T17:32:27.243Z,25.03
2023-04-20T17:34:55.710Z,24.42
2023-04-20T17:37:24.459Z,23.83
2023-04-20T17:39:52.860Z,23.28
2023-04-20T17:42:21.297Z,22.74
2023-04-20T17:44:49.606Z,22.23
2023-04-20T17:47:17.929Z,21.73
2023-04-20T17:49:46.310Z,21.29
2023-04-20T17:52:19.311Z,20.87
2023-04-20T17:54:47.760Z,20.45
2023-04-20T17:57:16.361Z,20.08
2023-04-20T17:59:44.827Z,19.70
2023-04-20T18:02:13.335Z,19.38
2023-04-20T18:04:41.978Z,19.05
2023-04-20T18:07:13.173Z,18.77
2023-04-20T18:09:43.293Z,18.51
2023-04-20T18:12:11.843Z,18.24
2023-04-20T18:14:40.842Z,18.02
2023-04-20T18:17:09.280Z,17.80
2023-04-20T18:19:37.957Z,17.56
2023-04-20T18:22:07.451Z,17.35
2023-04-20T18:24:35.961Z,17.14
2023-04-20T18:27:04.427Z,16.95
2023-04-20T18:29:33.053Z,16.77
2023-04-20T18:32:01.858Z,16.61
2023-04-20T18:34:32.291Z,16.45
2023-04-20T18:37:00.992Z,16.30
2023-04-20T18:39:29.951Z,16.14
2023-04-20T18:41:58.653Z,15.99
2023-04-20T18:44:28.395Z,15.82
2023-04-20T18:46:57.631Z,15.68
2023-04-20T18:49:26.576Z,15.55
2023-04-20T18:51:55.285Z,15.41
2023-04-20T18:54:23.726Z,15.25
2023-04-20T18:56:54.687Z,15.12
2023-04-20T18:59:24.744Z,14.96
2023-04-20T19:01:53.533Z,14.82
2023-04-20T19:04:22.231Z,14.70
2023-04-20T19:06:50.973Z,14.58
2023-04-20T19:09:19.372Z,14.45
2023-04-20T19:11:49.987Z,14.30
2023-04-20T19:14:18.745Z,14.17
2023-04-20T19:16:47.381Z,14.06
2023-04-20T19:19:16.067Z,13.95
2023-04-20T19:21:44.523Z,13.85
2023-04-20T19:24:13.461Z,13.76
2023-04-20T19:26:43.414Z,13.67
2023-04-20T19:29:13.476Z,13.58
2023-04-20T19:31:42.156Z,13.49
2023-04-20T19:34:13.637Z,13.40
2023-04-20T19:36:43.978Z,13.31
2023-04-20T19:39:12.856Z,13.23
2023-04-20T19:41:41.571Z,13.16
2023-04-20T19:44:12.119Z,13.09
2023-04-20T19:46:43.585Z,13.04
2023-04-20T19:49:12.019Z,12.97
2023-04-20T19:51:40.548Z,12.91
2023-04-20T19:54:08.958Z,12.85
2023-04-20T19:56:37.626Z,12.80
2023-04-20T19:59:06.081Z,12.74
2023-04-20T20:01:34.698Z,12.68
2023-04-20T20:04:03.464Z,12.63
2023-04-20T20:06:32.561Z,12.56
2023-04-20T20:09:02.120Z,12.52
2023-04-20T20:11:30.617Z,12.48
2023-04-20T20:13:59.890Z,12.42
2023-04-20T20:16:29.327Z,12.37
2023-04-20T20:18:59.978Z,12.31
2023-04-20T20:21:28.465Z,12.25
2023-04-20T20:23:56.980Z,12.18
2023-04-20T20:26:25.499Z,12.13
2023-04-20T20:28:53.983Z,12.07
2023-04-20T20:31:22.435Z,12.02
2023-04-20T20:33:52.127Z,11.96
2023-04-20T20:36:21.346Z,11.90
2023-04-20T20:38:49.831Z,11.84
2023-04-20T20:41:21.143Z,11.77
2023-04-20T20:43:50.179Z,11.70
2023-04-20T20:46:19.217Z,11.62
2023-04-20T20:48:47.674Z,11.53
2023-04-20T20:51:16.312Z,11.45
2023-04-20T20:53:44.809Z,11.39
2023-04-20T20:56:13.180Z,11.34
2023-04-20T20:58:41.557Z,11.32
2023-04-20T21:01:09.993Z,11.29
2023-04-20T21:03:38.704Z,11.25
2023-04-20T21:06:07.660Z,11.22
2023-04-20T21:08:38.711Z,11.17
2023-04-20T21:11:07.322Z,11.14
2023-04-20T21:13:35.785Z,11.08
2023-04-20T21:16:04.327Z,11.04
2023-04-20T21:18:32.765Z,10.99
2023-04-20T21:21:01.099Z,10.94
2023-04-20T21:23:29.511Z,10.90
2023-04-20T21:25:57.918Z,10.85
2023-04-20T21:28:26.375Z,10.79
2023-04-20T21:30:54.788Z,10.77
2023-04-20T21:33:23.144Z,10.73
2023-04-20T21:35:51.539Z,10.70
2023-04-20T21:38:19.892Z,10.67
2023-04-20T21:40:51.195Z,10.64
2023-04-20T21:43:19.491Z,10.59
2023-04-20T21:45:47.932Z,10.56
2023-04-20T21:48:16.294Z,10.51
2023-04-20T21:50:44.662Z,10.46
2023-04-20T21:53:13.003Z,10.40
2023-04-20T21:55:41.556Z,10.33
2023-04-20T21:58:10.327Z,10.26
2023-04-20T22:00:38.818Z,10.21
2023-04-20T22:03:07.410Z,10.16
2023-04-20T22:05:36.571Z,10.12
2023-04-20T22:08:05.398Z,10.09
2023-04-20T22:10:33.849Z,10.06
2023-04-20T22:13:02.461Z,10.03
2023-04-20T22:15:30.951Z,10.01
2023-04-20T22:18:04.275Z,9.98
2023-04-20T22:20:32.757Z,9.96
2023-04-20T22:23:01.227Z,9.93
2023-04-20T22:25:29.609Z,9.90
2023-04-20T22:27:58.096Z,9.88
2023-04-20T22:30:26.796Z,9.84
2023-04-20T22:32:55.194Z,9.81
2023-04-20T22:35:23.631Z,9.78
2023-04-20T22:37:51.990Z,9.74
2023-04-20T22:40:20.395Z,9.72
2023-04-20T22:42:48.893Z,9.69
2023-04-20T22:45:19.739Z,9.66
2023-04-20T22:47:48.197Z,9.62
2023-04-20T22:50:16.843Z,9.59
2023-04-20T22:52:45.259Z,9.56
2023-04-20T22:55:14.460Z,9.53
2023-04-20T22:57:42.826Z,9.49
2023-04-20T23:00:13.858Z,9.45
2023-04-20T23:02:42.539Z,9.42
2023-04-20T23:05:10.988Z,9.39
2023-04-20T23:07:39.562Z,9.35
2023-04-20T23:10:09.491Z,9.32
2023-04-20T23:12:38.396Z,9.28
2023-04-20T23:15:07.491Z,9.23
2023-04-20T23:17:36.033Z,9.19
2023-04-20T23:20:10.236Z,9.17
2023-04-20T23:22:38.576Z,9.14
2023-04-20T23:25:07.467Z,9.10
2023-04-20T23:27:35.794Z,9.07
2023-04-20T23:30:06.668Z,9.04
2023-04-20T23:32:35.616Z,9.01
2023-04-20T23:35:04.430Z,8.97
2023-04-20T23:37:32.986Z,8.92
2023-04-20T23:40:01.873Z,8.89
2023-04-20T23:42:30.180Z,8.84
2023-04-20T23:44:58.830Z,8.80
2023-04-20T23:47:27.255Z,8.76
2023-04-20T23:49:55.719Z,8.73
2023-04-20T23:52:24.184Z,8.69
2023-04-20T23:54:52.521Z,8.67
2023-04-20T23:57:20.914Z,8.64
2023-04-20T23:59:49.276Z,8.62
